PWSweather.com
Personal Weather Stations
Station Observations
TENMILE2
Watts Bar Lake, Ten Mile, TN 37880

Watts Bar LakeTen Mile, TN 37880

Lat: 35.686, Lon: -84.7068

Elevation: 767

Station Type: Davis VP2

http://www.wattsbarweather.net

High Low Average
Temperature 56.7°F13.7°C 44.9°F7.2°C 49.3°F9.6°C
Dew Point 46.7°F8.2°C 34.5°F1.4°C 39.6°F4.2°C
Winds 12.2 mph 19.6 kmh Calm Calm 4.0 mph SSW6.4 kmh SSW
Wind Gusts 25.0 mph40.2 kmh 2.0 mph3.2 kmh 12.0 mph19.3 kmh
Humidity 82% 57% 69%
Pressure 30.00 in1015.9 mb 29.64 in1003.7 mb -
Precipitation 0.00 in0.0 mm - -
Hour Temp Dew Point Humidity Winds Wind Gusts Pressure Precip Precip Rate Daily Precip Total
12:02 AM 60.1°F15.6°C 48.3°F9.1°C 65% 4.0 mph SW6.4 kmh SW 10.0 mph16.1 kmh 29.64 in1003.7 mb 0.00 in0.0 mm 0.00 in0.0 mm 0.00 in0.0 mm
12:07 AM 59.9°F15.5°C 48.1°F8.9°C 65% 6.0 mph S9.7 kmh S 27.5 mph44.3 kmh 29.65 in1004.1 mb 0.00 in0.0 mm 0.00 in0.0 mm 0.00 in0.0 mm
12:12 AM 59.4°F15.2°C 48.8°F9.3°C 68% 2.2 mph WNW3.5 kmh WNW 27.5 mph44.3 kmh 29.65 in1004.1 mb 0.00 in0.0 mm 0.00 in0.0 mm 0.00 in0.0 mm
12:17 AM 58.9°F14.9°C 47.6°F8.7°C 66% 5.0 mph S8.0 kmh S 23.0 mph37.0 kmh 29.66 in1004.4 mb 0.00 in0.0 mm 0.00 in0.0 mm 0.00 in0.0 mm
12:22 AM 58.7°F14.8°C 47.0°F8.3°C 65% 3.8 mph S6.1 kmh S 23.0 mph37.0 kmh 29.67 in1004.7 mb 0.00 in0.0 mm 0.00 in0.0 mm 0.00 in0.0 mm
12:28 AM 58.4°F14.7°C 45.8°F7.7°C 63% 4.2 mph SSW6.8 kmh SSW 12.5 mph20.1 kmh 29.66 in1004.4 mb 0.00 in0.0 mm 0.00 in0.0 mm 0.00 in0.0 mm
12:33 AM 58.1°F14.5°C 45.1°F7.3°C 62% 4.5 mph S7.2 kmh S 11.3 mph18.2 kmh 29.67 in1004.7 mb 0.00 in0.0 mm 0.00 in0.0 mm 0.00 in0.0 mm
12:38 AM 57.8°F14.3°C 44.4°F6.9°C 61% 3.4 mph SW5.5 kmh SW 10.0 mph16.1 kmh 29.66 in1004.4 mb 0.00 in0.0 mm 0.00 in0.0 mm 0.00 in0.0 mm
12:43 AM 57.8°F14.3°C 44.4°F6.9°C 61% 4.4 mph S7.1 kmh S 21.3 mph34.3 kmh 29.67 in1004.7 mb 0.00 in0.0 mm 0.00 in0.0 mm 0.00 in0.0 mm
12:48 AM 57.6°F14.2°C 44.2°F6.8°C 61% 3.4 mph SW5.5 kmh SW 21.3 mph34.3 kmh 29.67 in1004.7 mb 0.00 in0.0 mm 0.00 in0.0 mm 0.00 in0.0 mm
12:53 AM 57.4°F14.1°C 44.1°F6.7°C 61% 4.6 mph S7.4 kmh S 18.8 mph30.3 kmh 29.67 in1004.7 mb 0.00 in0.0 mm 0.00 in0.0 mm 0.00 in0.0 mm
12:58 AM 57.0°F13.9°C 44.1°F6.7°C 62% 3.9 mph S6.3 kmh S 18.8 mph30.3 kmh 29.67 in1004.7 mb 0.00 in0.0 mm 0.00 in0.0 mm 0.00 in0.0 mm
01:03 AM 56.7°F13.7°C 44.2°F6.8°C 63% 6.0 mph SSE9.7 kmh SSE 15.0 mph24.1 kmh 29.67 in1004.7 mb 0.00 in0.0 mm 0.00 in0.0 mm 0.00 in0.0 mm
01:08 AM 56.7°F13.7°C 43.8°F6.6°C 62% 3.5 mph S5.6 kmh S 11.3 mph18.2 kmh 29.67 in1004.7 mb 0.00 in0.0 mm 0.00 in0.0 mm 0.00 in0.0 mm
01:13 AM 56.6°F13.7°C 43.9°F6.6°C 62% 4.3 mph S6.9 kmh S 11.3 mph18.2 kmh 29.67 in1004.7 mb 0.00 in0.0 mm 0.00 in0.0 mm 0.00 in0.0 mm
01:18 AM 56.4°F13.6°C 44.1°F6.7°C 63% 3.3 mph S5.3 kmh S 12.5 mph20.1 kmh 29.67 in1004.7 mb 0.00 in0.0 mm 0.00 in0.0 mm 0.00 in0.0 mm
01:25 AM 56.4°F13.6°C 43.7°F6.5°C 62% 5.4 mph S8.7 kmh S 16.3 mph26.2 kmh 29.68 in1005.1 mb 0.00 in0.0 mm 0.00 in0.0 mm 0.00 in0.0 mm
01:30 AM 56.4°F13.6°C 43.7°F6.5°C 62% 5.7 mph SSE9.2 kmh SSE 16.3 mph26.2 kmh 29.67 in1004.7 mb 0.00 in0.0 mm 0.00 in0.0 mm 0.00 in0.0 mm
01:35 AM 56.4°F13.6°C 44.1°F6.7°C 63% 3.1 mph SSE5.0 kmh SSE 14.0 mph22.5 kmh 29.68 in1005.1 mb 0.00 in0.0 mm 0.00 in0.0 mm 0.00 in0.0 mm
01:40 AM 56.2°F13.4°C 43.5°F6.4°C 62% 4.0 mph S6.4 kmh S 14.0 mph22.5 kmh 29.67 in1004.7 mb 0.00 in0.0 mm 0.00 in0.0 mm 0.00 in0.0 mm
01:45 AM 56.1°F13.4°C 43.4°F6.3°C 62% 2.7 mph SSW4.3 kmh SSW 11.3 mph18.2 kmh 29.67 in1004.7 mb 0.00 in0.0 mm 0.00 in0.0 mm 0.00 in0.0 mm
01:50 AM 56.1°F13.4°C 43.8°F6.6°C 63% 4.0 mph S6.4 kmh S 10.0 mph16.1 kmh 29.67 in1004.7 mb 0.00 in0.0 mm 0.00 in0.0 mm 0.00 in0.0 mm
01:55 AM 55.9°F13.3°C 44.8°F7.1°C 66% 2.0 mph SE3.2 kmh SE 9.0 mph14.5 kmh 29.67 in1004.7 mb 0.00 in0.0 mm 0.00 in0.0 mm 0.00 in0.0 mm
02:00 AM 55.2°F12.9°C 45.7°F7.6°C 70% 1.3 mph SE2.1 kmh SE 9.0 mph14.5 kmh 29.67 in1004.7 mb 0.00 in0.0 mm 0.00 in0.0 mm 0.00 in0.0 mm
02:05 AM 54.9°F12.7°C 45.0°F7.2°C 69% 1.8 mph SSE2.9 kmh SSE 7.0 mph11.3 kmh 29.67 in1004.7 mb 0.00 in0.0 mm 0.00 in0.0 mm 0.00 in0.0 mm
02:10 AM 54.9°F12.7°C 44.7°F7.1°C 68% 2.0 mph SSE3.2 kmh SSE 6.3 mph10.1 kmh 29.66 in1004.4 mb 0.00 in0.0 mm 0.00 in0.0 mm 0.00 in0.0 mm
02:15 AM 54.7°F12.6°C 44.8°F7.1°C 69% 2.5 mph SSE4.0 kmh SSE 6.3 mph10.1 kmh 29.66 in1004.4 mb 0.00 in0.0 mm 0.00 in0.0 mm 0.00 in0.0 mm
02:20 AM 54.7°F12.6°C 44.8°F7.1°C 69% 2.0 mph ESE3.2 kmh ESE 6.3 mph10.1 kmh 29.66 in1004.4 mb 0.00 in0.0 mm 0.00 in0.0 mm 0.00 in0.0 mm
02:25 AM 54.7°F12.6°C 43.7°F6.5°C 66% 4.3 mph SSE6.9 kmh SSE 8.8 mph14.2 kmh 29.66 in1004.4 mb 0.00 in0.0 mm 0.00 in0.0 mm 0.00 in0.0 mm
02:30 AM 54.7°F12.6°C 43.7°F6.5°C 66% 2.9 mph S4.7 kmh S 8.8 mph14.2 kmh 29.65 in1004.1 mb 0.00 in0.0 mm 0.00 in0.0 mm 0.00 in0.0 mm
02:35 AM 54.7°F12.6°C 44.5°F6.9°C 68% 2.4 mph S3.9 kmh S 7.0 mph11.3 kmh 29.65 in1004.1 mb 0.00 in0.0 mm 0.00 in0.0 mm 0.00 in0.0 mm
02:40 AM 54.8°F12.7°C 43.4°F6.3°C 65% 7.2 mph S11.6 kmh S 12.5 mph20.1 kmh 29.65 in1004.1 mb 0.00 in0.0 mm 0.00 in0.0 mm 0.00 in0.0 mm
02:45 AM 54.9°F12.7°C 43.5°F6.4°C 65% 8.7 mph S14.0 kmh S 18.8 mph30.3 kmh 29.65 in1004.1 mb 0.00 in0.0 mm 0.00 in0.0 mm 0.00 in0.0 mm
02:50 AM 55.0°F12.8°C 43.6°F6.4°C 65% 6.7 mph S10.8 kmh S 18.8 mph30.3 kmh 29.65 in1004.1 mb 0.00 in0.0 mm 0.00 in0.0 mm 0.00 in0.0 mm
02:55 AM 54.9°F12.7°C 44.7°F7.1°C 68% 5.5 mph S8.9 kmh S 21.3 mph34.3 kmh 29.65 in1004.1 mb 0.00 in0.0 mm 0.00 in0.0 mm 0.00 in0.0 mm
03:00 AM 54.6°F12.6°C 45.5°F7.5°C 71% 3.4 mph SSW5.5 kmh SSW 21.3 mph34.3 kmh 29.66 in1004.4 mb 0.00 in0.0 mm 0.00 in0.0 mm 0.00 in0.0 mm
03:05 AM 54.2°F12.3°C 45.5°F7.5°C 72% 3.0 mph S4.8 kmh S 18.0 mph29.0 kmh 29.65 in1004.1 mb 0.00 in0.0 mm 0.00 in0.0 mm 0.00 in0.0 mm
03:10 AM 53.9°F12.2°C 45.9°F7.7°C 74% 2.5 mph S4.0 kmh S 18.0 mph29.0 kmh 29.65 in1004.1 mb 0.00 in0.0 mm 0.00 in0.0 mm 0.00 in0.0 mm
03:15 AM 53.7°F12.1°C 45.2°F7.3°C 73% 4.7 mph SSW7.6 kmh SSW 13.8 mph22.2 kmh 29.65 in1004.1 mb 0.00 in0.0 mm 0.00 in0.0 mm 0.00 in0.0 mm
03:20 AM 53.6°F12.0°C 45.6°F7.6°C 74% 2.8 mph S4.5 kmh S 13.8 mph22.2 kmh 29.64 in1003.7 mb 0.00 in0.0 mm 0.00 in0.0 mm 0.00 in0.0 mm
03:25 AM 53.4°F11.9°C 45.8°F7.7°C 75% 2.7 mph S4.3 kmh S 11.0 mph17.7 kmh 29.64 in1003.7 mb 0.00 in0.0 mm 0.00 in0.0 mm 0.00 in0.0 mm
03:31 AM 53.4°F11.9°C 46.0°F7.8°C 76% 4.8 mph SSW7.7 kmh SSW 11.0 mph17.7 kmh 29.65 in1004.1 mb 0.00 in0.0 mm 0.00 in0.0 mm 0.00 in0.0 mm
03:36 AM 53.1°F11.7°C 46.4°F8.0°C 78% 3.5 mph S5.6 kmh S 10.0 mph16.1 kmh 29.65 in1004.1 mb 0.00 in0.0 mm 0.00 in0.0 mm 0.00 in0.0 mm
03:41 AM 52.5°F11.4°C 46.2°F7.9°C 79% 6.3 mph S10.1 kmh S 12.5 mph20.1 kmh 29.65 in1004.1 mb 0.00 in0.0 mm 0.00 in0.0 mm 0.00 in0.0 mm
03:46 AM 52.0°F11.1°C 46.7°F8.2°C 82% 6.9 mph S11.1 kmh S 12.5 mph20.1 kmh 29.65 in1004.1 mb 0.00 in0.0 mm 0.00 in0.0 mm 0.00 in0.0 mm
03:51 AM 51.6°F10.9°C 45.6°F7.6°C 80% 5.7 mph S9.2 kmh S 11.3 mph18.2 kmh 29.65 in1004.1 mb 0.00 in0.0 mm 0.00 in0.0 mm 0.00 in0.0 mm
03:56 AM 51.3°F10.7°C 45.3°F7.4°C 80% 4.6 mph SSE7.4 kmh SSE 12.5 mph20.1 kmh 29.64 in1003.7 mb 0.00 in0.0 mm 0.00 in0.0 mm 0.00 in0.0 mm
04:01 AM 51.1°F10.6°C 45.5°F7.5°C 81% 4.5 mph SSE7.2 kmh SSE 12.5 mph20.1 kmh 29.65 in1004.1 mb 0.00 in0.0 mm 0.00 in0.0 mm 0.00 in0.0 mm
04:06 AM 50.9°F10.5°C 45.6°F7.6°C 82% 4.3 mph SE6.9 kmh SE 10.0 mph16.1 kmh 29.65 in1004.1 mb 0.00 in0.0 mm 0.00 in0.0 mm 0.00 in0.0 mm
04:11 AM 50.5°F10.3°C 45.2°F7.3°C 82% 4.9 mph SSE7.9 kmh SSE 9.0 mph14.5 kmh 29.65 in1004.1 mb 0.00 in0.0 mm 0.00 in0.0 mm 0.00 in0.0 mm
04:16 AM 50.4°F10.2°C 44.8°F7.1°C 81% 3.2 mph S5.1 kmh S 8.8 mph14.2 kmh 29.64 in1003.7 mb 0.00 in0.0 mm 0.00 in0.0 mm 0.00 in0.0 mm
04:21 AM 50.2°F10.1°C 44.6°F7.0°C 81% 4.5 mph S7.2 kmh S 8.8 mph14.2 kmh 29.64 in1003.7 mb 0.00 in0.0 mm 0.00 in0.0 mm 0.00 in0.0 mm
04:26 AM 50.1°F10.1°C 43.2°F6.2°C 77% 5.8 mph SSE9.3 kmh SSE 11.3 mph18.2 kmh 29.64 in1003.7 mb 0.00 in0.0 mm 0.00 in0.0 mm 0.00 in0.0 mm
04:31 AM 50.0°F10.0°C 43.1°F6.2°C 77% 6.2 mph S10.0 kmh S 11.3 mph18.2 kmh 29.64 in1003.7 mb 0.00 in0.0 mm 0.00 in0.0 mm 0.00 in0.0 mm
04:36 AM 50.0°F10.0°C 43.5°F6.4°C 78% 2.6 mph SE4.2 kmh SE 11.3 mph18.2 kmh 29.64 in1003.7 mb 0.00 in0.0 mm 0.00 in0.0 mm 0.00 in0.0 mm
04:41 AM 49.9°F9.9°C 42.7°F5.9°C 76% 4.7 mph SE7.6 kmh SE 11.3 mph18.2 kmh 29.64 in1003.7 mb 0.00 in0.0 mm 0.00 in0.0 mm 0.00 in0.0 mm
04:46 AM 50.0°F10.0°C 43.1°F6.2°C 77% 3.3 mph S5.3 kmh S 11.3 mph18.2 kmh 29.64 in1003.7 mb 0.00 in0.0 mm 0.00 in0.0 mm 0.00 in0.0 mm
04:51 AM 50.1°F10.1°C 42.6°F5.9°C 75% 6.9 mph SSE11.1 kmh SSE 13.8 mph22.2 kmh 29.64 in1003.7 mb 0.00 in0.0 mm 0.00 in0.0 mm 0.00 in0.0 mm
04:56 AM 50.1°F10.1°C 42.6°F5.9°C 75% 4.8 mph S7.7 kmh S 15.0 mph24.1 kmh 29.64 in1003.7 mb 0.00 in0.0 mm 0.00 in0.0 mm 0.00 in0.0 mm
05:01 AM 50.0°F10.0°C 42.5°F5.8°C 75% 7.4 mph S11.9 kmh S 15.0 mph24.1 kmh 29.64 in1003.7 mb 0.00 in0.0 mm 0.00 in0.0 mm 0.00 in0.0 mm
05:06 AM 49.9°F9.9°C 42.4°F5.8°C 75% 4.4 mph SSE7.1 kmh SSE 13.8 mph22.2 kmh 29.64 in1003.7 mb 0.00 in0.0 mm 0.00 in0.0 mm 0.00 in0.0 mm
05:11 AM 49.9°F9.9°C 42.0°F5.6°C 74% 6.4 mph S10.3 kmh S 12.0 mph19.3 kmh 29.64 in1003.7 mb 0.00 in0.0 mm 0.00 in0.0 mm 0.00 in0.0 mm
05:16 AM 50.0°F10.0°C 41.8°F5.4°C 73% 8.4 mph S13.5 kmh S 20.0 mph32.2 kmh 29.64 in1003.7 mb 0.00 in0.0 mm 0.00 in0.0 mm 0.00 in0.0 mm
05:21 AM 50.1°F10.1°C 41.5°F5.3°C 72% 10.6 mph SSE17.1 kmh SSE 20.0 mph32.2 kmh 29.64 in1003.7 mb 0.00 in0.0 mm 0.00 in0.0 mm 0.00 in0.0 mm
05:26 AM 50.0°F10.0°C 41.8°F5.4°C 73% 8.8 mph S14.2 kmh S 17.5 mph28.2 kmh 29.65 in1004.1 mb 0.00 in0.0 mm 0.00 in0.0 mm 0.00 in0.0 mm
05:31 AM 50.0°F10.0°C 41.8°F5.4°C 73% 4.0 mph S6.4 kmh S 18.8 mph30.3 kmh 29.65 in1004.1 mb 0.00 in0.0 mm 0.00 in0.0 mm 0.00 in0.0 mm
05:37 AM 49.9°F9.9°C 41.7°F5.4°C 73% 4.4 mph S7.1 kmh S 22.5 mph36.2 kmh 29.66 in1004.4 mb 0.00 in0.0 mm 0.00 in0.0 mm 0.00 in0.0 mm
05:42 AM 49.5°F9.7°C 40.8°F4.9°C 72% 7.0 mph S11.3 kmh S 22.5 mph36.2 kmh 29.66 in1004.4 mb 0.00 in0.0 mm 0.00 in0.0 mm 0.00 in0.0 mm
05:47 AM 49.0°F9.4°C 40.0°F4.4°C 71% 9.1 mph S14.6 kmh S 21.3 mph34.3 kmh 29.66 in1004.4 mb 0.00 in0.0 mm 0.00 in0.0 mm 0.00 in0.0 mm
05:52 AM 48.5°F9.2°C 40.2°F4.6°C 73% 3.9 mph SSW6.3 kmh SSW 21.3 mph34.3 kmh 29.67 in1004.7 mb 0.00 in0.0 mm 0.00 in0.0 mm 0.00 in0.0 mm
05:57 AM 48.3°F9.1°C 40.4°F4.7°C 74% 7.0 mph SSW11.3 kmh SSW 20.0 mph32.2 kmh 29.67 in1004.7 mb 0.00 in0.0 mm 0.00 in0.0 mm 0.00 in0.0 mm
06:02 AM 48.0°F8.9°C 40.5°F4.7°C 75% 6.3 mph SSE10.1 kmh SSE 18.0 mph29.0 kmh 29.67 in1004.7 mb 0.00 in0.0 mm 0.00 in0.0 mm 0.00 in0.0 mm
06:07 AM 47.8°F8.8°C 39.9°F4.4°C 74% 5.1 mph SSW8.2 kmh SSW 17.5 mph28.2 kmh 29.67 in1004.7 mb 0.00 in0.0 mm 0.00 in0.0 mm 0.00 in0.0 mm
06:12 AM 47.7°F8.7°C 39.8°F4.3°C 74% 5.6 mph SW9.0 kmh SW 21.3 mph34.3 kmh 29.67 in1004.7 mb 0.00 in0.0 mm 0.00 in0.0 mm 0.00 in0.0 mm
06:17 AM 47.6°F8.7°C 40.1°F4.5°C 75% 5.4 mph S8.7 kmh S 21.3 mph34.3 kmh 29.67 in1004.7 mb 0.00 in0.0 mm 0.00 in0.0 mm 0.00 in0.0 mm
06:22 AM 47.6°F8.7°C 40.1°F4.5°C 75% 3.8 mph S6.1 kmh S 17.0 mph27.4 kmh 29.67 in1004.7 mb 0.00 in0.0 mm 0.00 in0.0 mm 0.00 in0.0 mm
06:27 AM 47.5°F8.6°C 39.7°F4.3°C 74% 8.1 mph SSE13.0 kmh SSE 17.0 mph27.4 kmh 29.68 in1005.1 mb 0.00 in0.0 mm 0.00 in0.0 mm 0.00 in0.0 mm
06:32 AM 47.5°F8.6°C 39.4°F4.1°C 73% 6.0 mph SSE9.7 kmh SSE 15.0 mph24.1 kmh 29.68 in1005.1 mb 0.00 in0.0 mm 0.00 in0.0 mm 0.00 in0.0 mm
06:37 AM 47.5°F8.6°C 39.7°F4.3°C 74% 6.4 mph S10.3 kmh S 17.5 mph28.2 kmh 29.69 in1005.4 mb 0.00 in0.0 mm 0.00 in0.0 mm 0.00 in0.0 mm
06:42 AM 47.3°F8.5°C 39.2°F4.0°C 73% 8.1 mph SSE13.0 kmh SSE 18.8 mph30.3 kmh 29.69 in1005.4 mb 0.00 in0.0 mm 0.00 in0.0 mm 0.00 in0.0 mm
06:47 AM 47.1°F8.4°C 39.3°F4.1°C 74% 6.0 mph SSE9.7 kmh SSE 18.8 mph30.3 kmh 29.69 in1005.4 mb 0.00 in0.0 mm 0.00 in0.0 mm 0.00 in0.0 mm
06:52 AM 46.9°F8.3°C 39.5°F4.2°C 75% 2.2 mph SSW3.5 kmh SSW 16.0 mph25.7 kmh 29.69 in1005.4 mb 0.00 in0.0 mm 0.00 in0.0 mm 0.00 in0.0 mm
06:57 AM 46.8°F8.2°C 39.7°F4.3°C 76% 5.0 mph SSE8.0 kmh SSE 20.0 mph32.2 kmh 29.69 in1005.4 mb 0.00 in0.0 mm 0.00 in0.0 mm 0.00 in0.0 mm
07:02 AM 46.7°F8.2°C 39.3°F4.1°C 75% 7.5 mph S12.1 kmh S 20.0 mph32.2 kmh 29.69 in1005.4 mb 0.00 in0.0 mm 0.00 in0.0 mm 0.00 in0.0 mm
07:07 AM 46.7°F8.2°C 39.6°F4.2°C 76% 5.1 mph S8.2 kmh S 16.3 mph26.2 kmh 29.70 in1005.8 mb 0.00 in0.0 mm 0.00 in0.0 mm 0.00 in0.0 mm
07:12 AM 46.7°F8.2°C 39.3°F4.1°C 75% 4.5 mph S7.2 kmh S 16.0 mph25.7 kmh 29.70 in1005.8 mb 0.00 in0.0 mm 0.00 in0.0 mm 0.00 in0.0 mm
07:17 AM 46.8°F8.2°C 39.7°F4.3°C 76% 4.8 mph S7.7 kmh S 13.8 mph22.2 kmh 29.71 in1006.1 mb 0.00 in0.0 mm 0.00 in0.0 mm 0.00 in0.0 mm
07:22 AM 46.7°F8.2°C 38.6°F3.7°C 73% 9.7 mph S15.6 kmh S 21.3 mph34.3 kmh 29.70 in1005.8 mb 0.00 in0.0 mm 0.00 in0.0 mm 0.00 in0.0 mm
07:27 AM 46.7°F8.2°C 38.9°F3.8°C 74% 5.9 mph S9.5 kmh S 21.3 mph34.3 kmh 29.71 in1006.1 mb 0.00 in0.0 mm 0.00 in0.0 mm 0.00 in0.0 mm
07:33 AM 46.6°F8.1°C 38.1°F3.4°C 72% 8.2 mph S13.2 kmh S 18.0 mph29.0 kmh 29.71 in1006.1 mb 0.00 in0.0 mm 0.00 in0.0 mm 0.00 in0.0 mm
07:38 AM 46.5°F8.1°C 38.7°F3.7°C 74% 4.8 mph S7.7 kmh S 18.0 mph29.0 kmh 29.71 in1006.1 mb 0.00 in0.0 mm 0.00 in0.0 mm 0.00 in0.0 mm
07:43 AM 46.3°F7.9°C 37.9°F3.3°C 72% 8.2 mph S13.2 kmh S 16.3 mph26.2 kmh 29.71 in1006.1 mb 0.00 in0.0 mm 0.00 in0.0 mm 0.00 in0.0 mm
07:48 AM 46.2°F7.9°C 38.4°F3.6°C 74% 9.8 mph S15.8 kmh S 22.5 mph36.2 kmh 29.71 in1006.1 mb 0.00 in0.0 mm 0.00 in0.0 mm 0.00 in0.0 mm
07:53 AM 46.1°F7.8°C 38.3°F3.5°C 74% 7.8 mph S12.6 kmh S 22.5 mph36.2 kmh 29.71 in1006.1 mb 0.00 in0.0 mm 0.00 in0.0 mm 0.00 in0.0 mm
07:58 AM 46.0°F7.8°C 38.5°F3.6°C 75% 5.6 mph S9.0 kmh S 19.0 mph30.6 kmh 29.72 in1006.4 mb 0.00 in0.0 mm 0.00 in0.0 mm 0.00 in0.0 mm
08:03 AM 46.0°F7.8°C 38.5°F3.6°C 75% 5.7 mph S9.2 kmh S 19.0 mph30.6 kmh 29.72 in1006.4 mb 0.00 in0.0 mm 0.00 in0.0 mm 0.00 in0.0 mm
08:08 AM 45.8°F7.7°C 38.7°F3.7°C 76% 8.1 mph SSE13.0 kmh SSE 16.3 mph26.2 kmh 29.73 in1006.8 mb 0.00 in0.0 mm 0.00 in0.0 mm 0.00 in0.0 mm
08:13 AM 45.7°F7.6°C 38.3°F3.5°C 75% 12.2 mph SSE19.6 kmh SSE 20.0 mph32.2 kmh 29.73 in1006.8 mb 0.00 in0.0 mm 0.00 in0.0 mm 0.00 in0.0 mm
08:18 AM 45.5°F7.5°C 38.1°F3.4°C 75% 10.8 mph S17.4 kmh S 20.0 mph32.2 kmh 29.73 in1006.8 mb 0.00 in0.0 mm 0.00 in0.0 mm 0.00 in0.0 mm
08:23 AM 45.5°F7.5°C 38.4°F3.6°C 76% 9.9 mph SSE15.9 kmh SSE 20.0 mph32.2 kmh 29.73 in1006.8 mb 0.00 in0.0 mm 0.00 in0.0 mm 0.00 in0.0 mm
08:28 AM 45.4°F7.4°C 38.3°F3.5°C 76% 8.1 mph S13.0 kmh S 25.0 mph40.2 kmh 29.74 in1007.1 mb 0.00 in0.0 mm 0.00 in0.0 mm 0.00 in0.0 mm
08:33 AM 45.5°F7.5°C 38.8°F3.8°C 77% 9.7 mph S15.6 kmh S 25.0 mph40.2 kmh 29.74 in1007.1 mb 0.00 in0.0 mm 0.00 in0.0 mm 0.00 in0.0 mm
08:38 AM 45.3°F7.4°C 37.9°F3.3°C 75% 8.8 mph S14.2 kmh S 21.0 mph33.8 kmh 29.74 in1007.1 mb 0.00 in0.0 mm 0.00 in0.0 mm 0.00 in0.0 mm
08:43 AM 45.3°F7.4°C 38.2°F3.4°C 76% 6.3 mph S10.1 kmh S 21.0 mph33.8 kmh 29.74 in1007.1 mb 0.00 in0.0 mm 0.00 in0.0 mm 0.00 in0.0 mm
08:48 AM 45.2°F7.3°C 37.8°F3.2°C 75% 11.6 mph S18.7 kmh S 20.0 mph32.2 kmh 29.74 in1007.1 mb 0.00 in0.0 mm 0.00 in0.0 mm 0.00 in0.0 mm
08:53 AM 45.1°F7.3°C 38.0°F3.3°C 76% 7.7 mph SSE12.4 kmh SSE 20.0 mph32.2 kmh 29.75 in1007.5 mb 0.00 in0.0 mm 0.00 in0.0 mm 0.00 in0.0 mm
08:58 AM 45.1°F7.3°C 38.4°F3.6°C 77% 6.0 mph SSE9.7 kmh SSE 16.0 mph25.7 kmh 29.75 in1007.5 mb 0.00 in0.0 mm 0.00 in0.0 mm 0.00 in0.0 mm
09:03 AM 45.1°F7.3°C 38.4°F3.6°C 77% 9.2 mph S14.8 kmh S 22.5 mph36.2 kmh 29.75 in1007.5 mb 0.00 in0.0 mm 0.00 in0.0 mm 0.00 in0.0 mm
09:08 AM 45.1°F7.3°C 38.0°F3.3°C 76% 10.0 mph S16.1 kmh S 22.5 mph36.2 kmh 29.76 in1007.8 mb 0.00 in0.0 mm 0.00 in0.0 mm 0.00 in0.0 mm
09:13 AM 45.1°F7.3°C 38.4°F3.6°C 77% 4.4 mph S7.1 kmh S 19.0 mph30.6 kmh 29.76 in1007.8 mb 0.00 in0.0 mm 0.00 in0.0 mm 0.00 in0.0 mm
09:19 AM 45.1°F7.3°C 38.0°F3.3°C 76% 11.2 mph S18.0 kmh S 20.0 mph32.2 kmh 29.75 in1007.5 mb 0.00 in0.0 mm 0.00 in0.0 mm 0.00 in0.0 mm
09:24 AM 45.0°F7.2°C 37.9°F3.3°C 76% 7.1 mph SSE11.4 kmh SSE 22.5 mph36.2 kmh 29.76 in1007.8 mb 0.00 in0.0 mm 0.00 in0.0 mm 0.00 in0.0 mm
09:29 AM 45.0°F7.2°C 37.6°F3.1°C 75% 9.1 mph S14.6 kmh S 22.5 mph36.2 kmh 29.76 in1007.8 mb 0.00 in0.0 mm 0.00 in0.0 mm 0.00 in0.0 mm
09:34 AM 45.0°F7.2°C 37.9°F3.3°C 76% 8.2 mph S13.2 kmh S 18.0 mph29.0 kmh 29.76 in1007.8 mb 0.00 in0.0 mm 0.00 in0.0 mm 0.00 in0.0 mm
09:39 AM 45.0°F7.2°C 37.9°F3.3°C 76% 3.2 mph SSE5.1 kmh SSE 18.0 mph29.0 kmh 29.76 in1007.8 mb 0.00 in0.0 mm 0.00 in0.0 mm 0.00 in0.0 mm
09:44 AM 44.9°F7.2°C 37.8°F3.2°C 76% 7.9 mph S12.7 kmh S 20.0 mph32.2 kmh 29.77 in1008.1 mb 0.00 in0.0 mm 0.00 in0.0 mm 0.00 in0.0 mm
09:49 AM 44.9°F7.2°C 37.5°F3.1°C 75% 9.3 mph SSE15.0 kmh SSE 20.0 mph32.2 kmh 29.77 in1008.1 mb 0.00 in0.0 mm 0.00 in0.0 mm 0.00 in0.0 mm
09:54 AM 45.0°F7.2°C 38.3°F3.5°C 77% 3.9 mph SSE6.3 kmh SSE 18.8 mph30.3 kmh 29.77 in1008.1 mb 0.00 in0.0 mm 0.00 in0.0 mm 0.00 in0.0 mm
09:59 AM 45.1°F7.3°C 37.7°F3.2°C 75% 8.9 mph S14.3 kmh S 18.8 mph30.3 kmh 29.77 in1008.1 mb 0.00 in0.0 mm 0.00 in0.0 mm 0.00 in0.0 mm
10:04 AM 45.3°F7.4°C 37.9°F3.3°C 75% 4.0 mph S6.4 kmh S 17.5 mph28.2 kmh 29.77 in1008.1 mb 0.00 in0.0 mm 0.00 in0.0 mm 0.00 in0.0 mm
10:09 AM 45.4°F7.4°C 37.3°F2.9°C 73% 9.4 mph SSE15.1 kmh SSE 15.0 mph24.1 kmh 29.77 in1008.1 mb 0.00 in0.0 mm 0.00 in0.0 mm 0.00 in0.0 mm
10:14 AM 45.4°F7.4°C 38.3°F3.5°C 76% 3.2 mph SSW5.1 kmh SSW 20.0 mph32.2 kmh 29.77 in1008.1 mb 0.00 in0.0 mm 0.00 in0.0 mm 0.00 in0.0 mm
10:19 AM 45.6°F7.6°C 38.2°F3.4°C 75% 5.2 mph S8.4 kmh S 20.0 mph32.2 kmh 29.78 in1008.5 mb 0.00 in0.0 mm 0.00 in0.0 mm 0.00 in0.0 mm
10:24 AM 45.8°F7.7°C 37.4°F3.0°C 72% 3.5 mph SW5.6 kmh SW 18.8 mph30.3 kmh 29.78 in1008.5 mb 0.00 in0.0 mm 0.00 in0.0 mm 0.00 in0.0 mm
10:29 AM 45.9°F7.7°C 38.2°F3.4°C 74% 2.9 mph WSW4.7 kmh WSW 17.5 mph28.2 kmh 29.78 in1008.5 mb 0.00 in0.0 mm 0.00 in0.0 mm 0.00 in0.0 mm
10:34 AM 46.2°F7.9°C 38.1°F3.4°C 73% 3.1 mph SW5.0 kmh SW 17.5 mph28.2 kmh 29.78 in1008.5 mb 0.00 in0.0 mm 0.00 in0.0 mm 0.00 in0.0 mm
10:39 AM 46.5°F8.1°C 39.1°F3.9°C 75% 5.4 mph S8.7 kmh S 18.8 mph30.3 kmh 29.78 in1008.5 mb 0.00 in0.0 mm 0.00 in0.0 mm 0.00 in0.0 mm
10:44 AM 46.8°F8.2°C 37.6°F3.1°C 70% 5.1 mph SW8.2 kmh SW 22.5 mph36.2 kmh 29.78 in1008.5 mb 0.00 in0.0 mm 0.00 in0.0 mm 0.00 in0.0 mm
10:49 AM 46.8°F8.2°C 37.6°F3.1°C 70% 3.6 mph WSW5.8 kmh WSW 18.0 mph29.0 kmh 29.78 in1008.5 mb 0.00 in0.0 mm 0.00 in0.0 mm 0.00 in0.0 mm
10:54 AM 47.0°F8.3°C 38.9°F3.8°C 73% 4.9 mph SSW7.9 kmh SSW 18.0 mph29.0 kmh 29.78 in1008.5 mb 0.00 in0.0 mm 0.00 in0.0 mm 0.00 in0.0 mm
10:59 AM 47.1°F8.4°C 37.9°F3.3°C 70% 2.9 mph SSW4.7 kmh SSW 10.0 mph16.1 kmh 29.79 in1008.8 mb 0.00 in0.0 mm 0.00 in0.0 mm 0.00 in0.0 mm
11:04 AM 47.3°F8.5°C 38.5°F3.6°C 71% 3.5 mph SSW5.6 kmh SSW 9.0 mph14.5 kmh 29.79 in1008.8 mb 0.00 in0.0 mm 0.00 in0.0 mm 0.00 in0.0 mm
11:10 AM 47.3°F8.5°C 38.5°F3.6°C 71% 4.4 mph S7.1 kmh S 11.3 mph18.2 kmh 29.80 in1009.1 mb 0.00 in0.0 mm 0.00 in0.0 mm 0.00 in0.0 mm
11:15 AM 47.4°F8.6°C 38.2°F3.4°C 70% 3.5 mph S5.6 kmh S 11.3 mph18.2 kmh 29.80 in1009.1 mb 0.00 in0.0 mm 0.00 in0.0 mm 0.00 in0.0 mm
11:20 AM 47.5°F8.6°C 39.0°F3.9°C 72% 3.2 mph SW5.1 kmh SW 9.0 mph14.5 kmh 29.80 in1009.1 mb 0.00 in0.0 mm 0.00 in0.0 mm 0.00 in0.0 mm
11:25 AM 47.6°F8.7°C 39.1°F3.9°C 72% 3.2 mph S5.1 kmh S 10.0 mph16.1 kmh 29.80 in1009.1 mb 0.00 in0.0 mm 0.00 in0.0 mm 0.00 in0.0 mm
11:30 AM 47.6°F8.7°C 38.4°F3.6°C 70% 2.9 mph S4.7 kmh S 10.0 mph16.1 kmh 29.80 in1009.1 mb 0.00 in0.0 mm 0.00 in0.0 mm 0.00 in0.0 mm
11:35 AM 47.6°F8.7°C 39.1°F3.9°C 72% 4.8 mph S7.7 kmh S 11.3 mph18.2 kmh 29.81 in1009.5 mb 0.00 in0.0 mm 0.00 in0.0 mm 0.00 in0.0 mm
11:40 AM 47.2°F8.4°C 37.5°F3.1°C 69% 5.3 mph SSW8.5 kmh SSW 18.8 mph30.3 kmh 29.81 in1009.5 mb 0.00 in0.0 mm 0.00 in0.0 mm 0.00 in0.0 mm
11:45 AM 47.1°F8.4°C 38.2°F3.4°C 71% 4.1 mph SW6.6 kmh SW 18.8 mph30.3 kmh 29.81 in1009.5 mb 0.00 in0.0 mm 0.00 in0.0 mm 0.00 in0.0 mm
11:50 AM 47.2°F8.4°C 38.3°F3.5°C 71% 3.2 mph SW5.1 kmh SW 16.0 mph25.7 kmh 29.81 in1009.5 mb 0.00 in0.0 mm 0.00 in0.0 mm 0.00 in0.0 mm
11:55 AM 47.3°F8.5°C 38.7°F3.7°C 72% 3.7 mph S6.0 kmh S 16.0 mph25.7 kmh 29.82 in1009.8 mb 0.00 in0.0 mm 0.00 in0.0 mm 0.00 in0.0 mm
12:00 PM 47.3°F8.5°C 38.7°F3.7°C 72% 2.7 mph SW4.3 kmh SW 11.3 mph18.2 kmh 29.82 in1009.8 mb 0.00 in0.0 mm 0.00 in0.0 mm 0.00 in0.0 mm
12:05 PM 47.5°F8.6°C 38.2°F3.4°C 70% 4.6 mph S7.4 kmh S 11.3 mph18.2 kmh 29.82 in1009.8 mb 0.00 in0.0 mm 0.00 in0.0 mm 0.00 in0.0 mm
12:10 PM 47.8°F8.8°C 38.1°F3.4°C 69% 3.6 mph SSW5.8 kmh SSW 11.3 mph18.2 kmh 29.82 in1009.8 mb 0.00 in0.0 mm 0.00 in0.0 mm 0.00 in0.0 mm
12:15 PM 47.9°F8.8°C 38.6°F3.7°C 70% 4.0 mph S6.4 kmh S 11.3 mph18.2 kmh 29.82 in1009.8 mb 0.00 in0.0 mm 0.00 in0.0 mm 0.00 in0.0 mm
12:20 PM 47.9°F8.8°C 38.7°F3.7°C 70% 2.7 mph S4.3 kmh S 11.3 mph18.2 kmh 29.82 in1009.8 mb 0.00 in0.0 mm 0.00 in0.0 mm 0.00 in0.0 mm
12:25 PM 47.7°F8.7°C 38.8°F3.8°C 71% 4.0 mph S6.4 kmh S 15.0 mph24.1 kmh 29.83 in1010.2 mb 0.00 in0.0 mm 0.00 in0.0 mm 0.00 in0.0 mm
12:30 PM 47.8°F8.8°C 38.2°F3.4°C 69% 4.9 mph SW7.9 kmh SW 15.0 mph24.1 kmh 29.83 in1010.2 mb 0.00 in0.0 mm 0.00 in0.0 mm 0.00 in0.0 mm
12:35 PM 47.9°F8.8°C 39.4°F4.1°C 72% 2.5 mph WNW4.0 kmh WNW 12.0 mph19.3 kmh 29.83 in1010.2 mb 0.00 in0.0 mm 0.00 in0.0 mm 0.00 in0.0 mm
12:40 PM 48.2°F9.0°C 39.7°F4.3°C 72% 3.3 mph SW5.3 kmh SW 12.0 mph19.3 kmh 29.82 in1009.8 mb 0.00 in0.0 mm 0.00 in0.0 mm 0.00 in0.0 mm
12:45 PM 48.3°F9.1°C 39.1°F3.9°C 70% 5.4 mph SW8.7 kmh SW 15.0 mph24.1 kmh 29.83 in1010.2 mb 0.00 in0.0 mm 0.00 in0.0 mm 0.00 in0.0 mm
12:50 PM 48.2°F9.0°C 39.7°F4.3°C 72% 3.9 mph SW6.3 kmh SW 15.0 mph24.1 kmh 29.82 in1009.8 mb 0.00 in0.0 mm 0.00 in0.0 mm 0.00 in0.0 mm
12:55 PM 48.1°F8.9°C 38.9°F3.8°C 70% 3.8 mph SW6.1 kmh SW 16.3 mph26.2 kmh 29.83 in1010.2 mb 0.00 in0.0 mm 0.00 in0.0 mm 0.00 in0.0 mm
01:01 PM 48.1°F8.9°C 39.6°F4.2°C 72% 3.0 mph SSW4.8 kmh SSW 16.3 mph26.2 kmh 29.83 in1010.2 mb 0.00 in0.0 mm 0.00 in0.0 mm 0.00 in0.0 mm
01:06 PM 48.1°F8.9°C 39.2°F4.0°C 71% 7.4 mph S11.9 kmh S 14.0 mph22.5 kmh 29.83 in1010.2 mb 0.00 in0.0 mm 0.00 in0.0 mm 0.00 in0.0 mm
01:11 PM 48.0°F8.9°C 39.1°F3.9°C 71% 3.9 mph SW6.3 kmh SW 14.0 mph22.5 kmh 29.83 in1010.2 mb 0.00 in0.0 mm 0.00 in0.0 mm 0.00 in0.0 mm
01:16 PM 47.9°F8.8°C 39.0°F3.9°C 71% 2.5 mph SW4.0 kmh SW 13.0 mph20.9 kmh 29.83 in1010.2 mb 0.00 in0.0 mm 0.00 in0.0 mm 0.00 in0.0 mm
01:21 PM 47.8°F8.8°C 39.3°F4.1°C 72% 4.7 mph SSW7.6 kmh SSW 13.0 mph20.9 kmh 29.83 in1010.2 mb 0.00 in0.0 mm 0.00 in0.0 mm 0.00 in0.0 mm
01:26 PM 47.6°F8.7°C 39.5°F4.2°C 73% 3.4 mph SSW5.5 kmh SSW 12.5 mph20.1 kmh 29.83 in1010.2 mb 0.00 in0.0 mm 0.00 in0.0 mm 0.00 in0.0 mm
01:31 PM 47.8°F8.8°C 39.3°F4.1°C 72% 3.8 mph SW6.1 kmh SW 10.0 mph16.1 kmh 29.83 in1010.2 mb 0.00 in0.0 mm 0.00 in0.0 mm 0.00 in0.0 mm
01:36 PM 47.7°F8.7°C 38.5°F3.6°C 70% 4.1 mph SSW6.6 kmh SSW 9.0 mph14.5 kmh 29.83 in1010.2 mb 0.00 in0.0 mm 0.00 in0.0 mm 0.00 in0.0 mm
01:41 PM 47.7°F8.7°C 39.2°F4.0°C 72% 2.7 mph WSW4.3 kmh WSW 10.0 mph16.1 kmh 29.84 in1010.5 mb 0.00 in0.0 mm 0.00 in0.0 mm 0.00 in0.0 mm
01:46 PM 47.9°F8.8°C 39.0°F3.9°C 71% 3.0 mph SW4.8 kmh SW 10.0 mph16.1 kmh 29.84 in1010.5 mb 0.00 in0.0 mm 0.00 in0.0 mm 0.00 in0.0 mm
01:51 PM 48.2°F9.0°C 39.3°F4.1°C 71% 4.0 mph WSW6.4 kmh WSW 8.8 mph14.2 kmh 29.84 in1010.5 mb 0.00 in0.0 mm 0.00 in0.0 mm 0.00 in0.0 mm
01:56 PM 48.3°F9.1°C 39.8°F4.3°C 72% 2.5 mph SW4.0 kmh SW 7.5 mph12.1 kmh 29.84 in1010.5 mb 0.00 in0.0 mm 0.00 in0.0 mm 0.00 in0.0 mm
02:01 PM 48.3°F9.1°C 40.5°F4.7°C 74% 5.2 mph S8.4 kmh S 15.0 mph24.1 kmh 29.84 in1010.5 mb 0.00 in0.0 mm 0.00 in0.0 mm 0.00 in0.0 mm
02:06 PM 47.9°F8.8°C 40.1°F4.5°C 74% 4.6 mph SSW7.4 kmh SSW 16.3 mph26.2 kmh 29.84 in1010.5 mb 0.00 in0.0 mm 0.00 in0.0 mm 0.00 in0.0 mm
02:11 PM 48.0°F8.9°C 40.2°F4.6°C 74% 4.2 mph S6.8 kmh S 16.3 mph26.2 kmh 29.84 in1010.5 mb 0.00 in0.0 mm 0.00 in0.0 mm 0.00 in0.0 mm
02:16 PM 48.3°F9.1°C 40.1°F4.5°C 73% 4.3 mph SSW6.9 kmh SSW 13.0 mph20.9 kmh 29.84 in1010.5 mb 0.00 in0.0 mm 0.00 in0.0 mm 0.00 in0.0 mm
02:21 PM 48.5°F9.2°C 40.3°F4.6°C 73% 5.1 mph SW8.2 kmh SW 13.0 mph20.9 kmh 29.84 in1010.5 mb 0.00 in0.0 mm 0.00 in0.0 mm 0.00 in0.0 mm
02:26 PM 48.7°F9.3°C 39.5°F4.2°C 70% 3.6 mph SW5.8 kmh SW 12.5 mph20.1 kmh 29.84 in1010.5 mb 0.00 in0.0 mm 0.00 in0.0 mm 0.00 in0.0 mm
02:31 PM 49.0°F9.4°C 40.1°F4.5°C 71% 2.0 mph W3.2 kmh W 16.3 mph26.2 kmh 29.84 in1010.5 mb 0.00 in0.0 mm 0.00 in0.0 mm 0.00 in0.0 mm
02:36 PM 48.8°F9.3°C 40.6°F4.8°C 73% 3.6 mph SSE5.8 kmh SSE 16.3 mph26.2 kmh 29.84 in1010.5 mb 0.00 in0.0 mm 0.00 in0.0 mm 0.00 in0.0 mm
02:41 PM 49.6°F9.8°C 42.7°F5.9°C 77% 3.2 mph SSW5.1 kmh SSW 13.0 mph20.9 kmh 29.84 in1010.5 mb 0.00 in0.0 mm 0.00 in0.0 mm 0.00 in0.0 mm
02:46 PM 50.9°F10.5°C 42.6°F5.9°C 73% 3.8 mph SW6.1 kmh SW 11.0 mph17.7 kmh 29.84 in1010.5 mb 0.00 in0.0 mm 0.00 in0.0 mm 0.00 in0.0 mm
02:51 PM 51.3°F10.7°C 41.6°F5.3°C 69% 4.2 mph SW6.8 kmh SW 8.8 mph14.2 kmh 29.84 in1010.5 mb 0.00 in0.0 mm 0.00 in0.0 mm 0.00 in0.0 mm
02:56 PM 51.7°F10.9°C 41.2°F5.1°C 67% 4.7 mph SSW7.6 kmh SSW 8.8 mph14.2 kmh 29.85 in1010.8 mb 0.00 in0.0 mm 0.00 in0.0 mm 0.00 in0.0 mm
03:01 PM 51.0°F10.6°C 41.3°F5.2°C 69% 4.0 mph WSW6.4 kmh WSW 8.8 mph14.2 kmh 29.85 in1010.8 mb 0.00 in0.0 mm 0.00 in0.0 mm 0.00 in0.0 mm
03:06 PM 50.4°F10.2°C 42.2°F5.7°C 73% 2.9 mph SW4.7 kmh SW 8.8 mph14.2 kmh 29.85 in1010.8 mb 0.00 in0.0 mm 0.00 in0.0 mm 0.00 in0.0 mm
03:11 PM 50.4°F10.2°C 41.5°F5.3°C 71% 3.8 mph WSW6.1 kmh WSW 11.3 mph18.2 kmh 29.85 in1010.8 mb 0.00 in0.0 mm 0.00 in0.0 mm 0.00 in0.0 mm
03:16 PM 50.6°F10.3°C 41.6°F5.3°C 71% 4.8 mph SW7.7 kmh SW 13.8 mph22.2 kmh 29.85 in1010.8 mb 0.00 in0.0 mm 0.00 in0.0 mm 0.00 in0.0 mm
03:21 PM 50.6°F10.3°C 42.3°F5.7°C 73% 3.7 mph SW6.0 kmh SW 13.8 mph22.2 kmh 29.85 in1010.8 mb 0.00 in0.0 mm 0.00 in0.0 mm 0.00 in0.0 mm
03:26 PM 51.1°F10.6°C 42.8°F6.0°C 73% 3.5 mph SW5.6 kmh SW 12.5 mph20.1 kmh 29.85 in1010.8 mb 0.00 in0.0 mm 0.00 in0.0 mm 0.00 in0.0 mm
03:31 PM 51.5°F10.8°C 42.1°F5.6°C 70% 4.7 mph SW7.6 kmh SW 11.3 mph18.2 kmh 29.85 in1010.8 mb 0.00 in0.0 mm 0.00 in0.0 mm 0.00 in0.0 mm
03:37 PM 51.6°F10.9°C 41.5°F5.3°C 68% 3.9 mph SW6.3 kmh SW 10.0 mph16.1 kmh 29.86 in1011.2 mb 0.00 in0.0 mm 0.00 in0.0 mm 0.00 in0.0 mm
03:42 PM 50.8°F10.4°C 41.7°F5.4°C 71% 5.1 mph SSW8.2 kmh SSW 16.3 mph26.2 kmh 29.86 in1011.2 mb 0.00 in0.0 mm 0.00 in0.0 mm 0.00 in0.0 mm
03:47 PM 50.4°F10.2°C 41.8°F5.4°C 72% 2.5 mph SW4.0 kmh SW 16.3 mph26.2 kmh 29.86 in1011.2 mb 0.00 in0.0 mm 0.00 in0.0 mm 0.00 in0.0 mm
03:52 PM 50.5°F10.3°C 43.3°F6.3°C 76% 2.2 mph SSE3.5 kmh SSE 14.0 mph22.5 kmh 29.86 in1011.2 mb 0.00 in0.0 mm 0.00 in0.0 mm 0.00 in0.0 mm
03:57 PM 51.1°F10.6°C 41.8°F5.4°C 70% 6.3 mph SW10.1 kmh SW 16.3 mph26.2 kmh 29.86 in1011.2 mb 0.00 in0.0 mm 0.00 in0.0 mm 0.00 in0.0 mm
04:02 PM 51.3°F10.7°C 42.7°F5.9°C 72% 2.6 mph SW4.2 kmh SW 16.3 mph26.2 kmh 29.86 in1011.2 mb 0.00 in0.0 mm 0.00 in0.0 mm 0.00 in0.0 mm
04:07 PM 51.8°F11.0°C 42.1°F5.6°C 69% 3.1 mph WSW5.0 kmh WSW 15.0 mph24.1 kmh 29.87 in1011.5 mb 0.00 in0.0 mm 0.00 in0.0 mm 0.00 in0.0 mm
04:12 PM 51.4°F10.8°C 42.4°F5.8°C 71% 1.8 mph WSW2.9 kmh WSW 13.0 mph20.9 kmh 29.87 in1011.5 mb 0.00 in0.0 mm 0.00 in0.0 mm 0.00 in0.0 mm
04:17 PM 51.0°F10.6°C 42.0°F5.6°C 71% 2.8 mph SSW4.5 kmh SSW 8.8 mph14.2 kmh 29.87 in1011.5 mb 0.00 in0.0 mm 0.00 in0.0 mm 0.00 in0.0 mm
04:22 PM 50.4°F10.2°C 42.5°F5.8°C 74% 4.6 mph SW7.4 kmh SW 8.8 mph14.2 kmh 29.87 in1011.5 mb 0.00 in0.0 mm 0.00 in0.0 mm 0.00 in0.0 mm
04:27 PM 50.2°F10.1°C 42.0°F5.6°C 73% 5.7 mph SW9.2 kmh SW 12.5 mph20.1 kmh 29.88 in1011.9 mb 0.00 in0.0 mm 0.00 in0.0 mm 0.00 in0.0 mm
04:32 PM 50.5°F10.3°C 41.9°F5.5°C 72% 4.4 mph WSW7.1 kmh WSW 12.5 mph20.1 kmh 29.87 in1011.5 mb 0.00 in0.0 mm 0.00 in0.0 mm 0.00 in0.0 mm
04:37 PM 50.3°F10.2°C 40.5°F4.7°C 69% 4.2 mph WSW6.8 kmh WSW 12.5 mph20.1 kmh 29.88 in1011.9 mb 0.00 in0.0 mm 0.00 in0.0 mm 0.00 in0.0 mm
04:42 PM 49.9°F9.9°C 40.2°F4.6°C 69% 4.3 mph SW6.9 kmh SW 12.5 mph20.1 kmh 29.88 in1011.9 mb 0.00 in0.0 mm 0.00 in0.0 mm 0.00 in0.0 mm
04:47 PM 49.7°F9.8°C 40.0°F4.4°C 69% 3.8 mph SW6.1 kmh SW 10.0 mph16.1 kmh 29.88 in1011.9 mb 0.00 in0.0 mm 0.00 in0.0 mm 0.00 in0.0 mm
04:52 PM 49.4°F9.7°C 41.2°F5.1°C 73% 2.8 mph WSW4.5 kmh WSW 9.0 mph14.5 kmh 29.89 in1012.2 mb 0.00 in0.0 mm 0.00 in0.0 mm 0.00 in0.0 mm
04:57 PM 49.3°F9.6°C 41.4°F5.2°C 74% 2.7 mph SW4.3 kmh SW 9.0 mph14.5 kmh 29.89 in1012.2 mb 0.00 in0.0 mm 0.00 in0.0 mm 0.00 in0.0 mm
05:02 PM 49.2°F9.6°C 40.6°F4.8°C 72% 2.9 mph SW4.7 kmh SW 10.0 mph16.1 kmh 29.89 in1012.2 mb 0.00 in0.0 mm 0.00 in0.0 mm 0.00 in0.0 mm
05:07 PM 49.3°F9.6°C 40.7°F4.8°C 72% 3.8 mph WSW6.1 kmh WSW 10.0 mph16.1 kmh 29.89 in1012.2 mb 0.00 in0.0 mm 0.00 in0.0 mm 0.00 in0.0 mm
05:12 PM 49.4°F9.7°C 40.5°F4.7°C 71% 3.4 mph WSW5.5 kmh WSW 9.0 mph14.5 kmh 29.89 in1012.2 mb 0.00 in0.0 mm 0.00 in0.0 mm 0.00 in0.0 mm
05:17 PM 49.2°F9.6°C 40.3°F4.6°C 71% 4.6 mph SW7.4 kmh SW 12.5 mph20.1 kmh 29.90 in1012.5 mb 0.00 in0.0 mm 0.00 in0.0 mm 0.00 in0.0 mm
05:22 PM 49.1°F9.5°C 41.2°F5.1°C 74% 2.4 mph WNW3.9 kmh WNW 12.5 mph20.1 kmh 29.90 in1012.5 mb 0.00 in0.0 mm 0.00 in0.0 mm 0.00 in0.0 mm
05:27 PM 49.2°F9.6°C 40.6°F4.8°C 72% 3.1 mph SW5.0 kmh SW 9.0 mph14.5 kmh 29.90 in1012.5 mb 0.00 in0.0 mm 0.00 in0.0 mm 0.00 in0.0 mm
05:32 PM 49.3°F9.6°C 40.0°F4.4°C 70% 3.2 mph W5.1 kmh W 9.0 mph14.5 kmh 29.90 in1012.5 mb 0.00 in0.0 mm 0.00 in0.0 mm 0.00 in0.0 mm
05:37 PM 49.5°F9.7°C 40.6°F4.8°C 71% 2.5 mph WSW4.0 kmh WSW 8.8 mph14.2 kmh 29.91 in1012.9 mb 0.00 in0.0 mm 0.00 in0.0 mm 0.00 in0.0 mm
05:42 PM 49.5°F9.7°C 39.9°F4.4°C 69% 2.9 mph SW4.7 kmh SW 6.3 mph10.1 kmh 29.91 in1012.9 mb 0.00 in0.0 mm 0.00 in0.0 mm 0.00 in0.0 mm
05:47 PM 49.4°F9.7°C 40.1°F4.5°C 70% 3.3 mph SW5.3 kmh SW 13.8 mph22.2 kmh 29.91 in1012.9 mb 0.00 in0.0 mm 0.00 in0.0 mm 0.00 in0.0 mm
05:52 PM 48.6°F9.2°C 41.1°F5.1°C 75% 3.5 mph SW5.6 kmh SW 15.0 mph24.1 kmh 29.92 in1013.2 mb 0.00 in0.0 mm 0.00 in0.0 mm 0.00 in0.0 mm
05:57 PM 48.1°F8.9°C 40.3°F4.6°C 74% 3.2 mph WSW5.1 kmh WSW 15.0 mph24.1 kmh 29.92 in1013.2 mb 0.00 in0.0 mm 0.00 in0.0 mm 0.00 in0.0 mm
06:02 PM 48.3°F9.1°C 38.7°F3.7°C 69% 3.2 mph SW5.1 kmh SW 13.8 mph22.2 kmh 29.92 in1013.2 mb 0.00 in0.0 mm 0.00 in0.0 mm 0.00 in0.0 mm
06:07 PM 48.7°F9.3°C 39.5°F4.2°C 70% 5.0 mph SW8.0 kmh SW 13.8 mph22.2 kmh 29.93 in1013.5 mb 0.00 in0.0 mm 0.00 in0.0 mm 0.00 in0.0 mm
06:12 PM 49.1°F9.5°C 38.7°F3.7°C 67% 4.9 mph W7.9 kmh W 12.5 mph20.1 kmh 29.93 in1013.5 mb 0.00 in0.0 mm 0.00 in0.0 mm 0.00 in0.0 mm
06:17 PM 49.6°F9.8°C 38.0°F3.3°C 64% 2.9 mph W4.7 kmh W 11.3 mph18.2 kmh 29.93 in1013.5 mb 0.00 in0.0 mm 0.00 in0.0 mm 0.00 in0.0 mm
06:22 PM 49.7°F9.8°C 38.9°F3.8°C 66% 2.9 mph WNW4.7 kmh WNW 10.0 mph16.1 kmh 29.93 in1013.5 mb 0.00 in0.0 mm 0.00 in0.0 mm 0.00 in0.0 mm
06:27 PM 50.0°F10.0°C 37.6°F3.1°C 62% 3.3 mph SW5.3 kmh SW 10.0 mph16.1 kmh 29.93 in1013.5 mb 0.00 in0.0 mm 0.00 in0.0 mm 0.00 in0.0 mm
06:32 PM 50.3°F10.2°C 38.3°F3.5°C 63% 3.9 mph W6.3 kmh W 8.8 mph14.2 kmh 29.94 in1013.9 mb 0.00 in0.0 mm 0.00 in0.0 mm 0.00 in0.0 mm
06:37 PM 50.7°F10.4°C 37.4°F3.0°C 60% 6.3 mph SW10.1 kmh SW 12.5 mph20.1 kmh 29.94 in1013.9 mb 0.00 in0.0 mm 0.00 in0.0 mm 0.00 in0.0 mm
06:42 PM 51.4°F10.8°C 38.5°F3.6°C 61% 2.7 mph W4.3 kmh W 12.5 mph20.1 kmh 29.94 in1013.9 mb 0.00 in0.0 mm 0.00 in0.0 mm 0.00 in0.0 mm
06:47 PM 51.6°F10.9°C 38.3°F3.5°C 60% 2.1 mph SW3.4 kmh SW 10.0 mph16.1 kmh 29.94 in1013.9 mb 0.00 in0.0 mm 0.00 in0.0 mm 0.00 in0.0 mm
06:52 PM 51.5°F10.8°C 37.3°F2.9°C 58% 2.9 mph SW4.7 kmh SW 10.0 mph16.1 kmh 29.93 in1013.5 mb 0.00 in0.0 mm 0.00 in0.0 mm 0.00 in0.0 mm
06:57 PM 51.4°F10.8°C 37.6°F3.1°C 59% 2.7 mph SW4.3 kmh SW 8.8 mph14.2 kmh 29.94 in1013.9 mb 0.00 in0.0 mm 0.00 in0.0 mm 0.00 in0.0 mm
07:02 PM 51.3°F10.7°C 37.5°F3.1°C 59% 2.0 mph WNW3.2 kmh WNW 7.5 mph12.1 kmh 29.94 in1013.9 mb 0.00 in0.0 mm 0.00 in0.0 mm 0.00 in0.0 mm
07:07 PM 51.4°F10.8°C 37.6°F3.1°C 59% 2.4 mph W3.9 kmh W 7.5 mph12.1 kmh 29.93 in1013.5 mb 0.00 in0.0 mm 0.00 in0.0 mm 0.00 in0.0 mm
07:13 PM 51.7°F10.9°C 37.9°F3.3°C 59% 2.3 mph SW3.7 kmh SW 6.0 mph9.7 kmh 29.94 in1013.9 mb 0.00 in0.0 mm 0.00 in0.0 mm 0.00 in0.0 mm
07:18 PM 51.6°F10.9°C 37.3°F2.9°C 58% 2.5 mph SW4.0 kmh SW 6.3 mph10.1 kmh 29.94 in1013.9 mb 0.00 in0.0 mm 0.00 in0.0 mm 0.00 in0.0 mm
07:23 PM 51.5°F10.8°C 37.7°F3.2°C 59% 1.8 mph WSW2.9 kmh WSW 7.5 mph12.1 kmh 29.94 in1013.9 mb 0.00 in0.0 mm 0.00 in0.0 mm 0.00 in0.0 mm
07:28 PM 51.4°F10.8°C 37.2°F2.9°C 58% 4.6 mph SW7.4 kmh SW 15.0 mph24.1 kmh 29.94 in1013.9 mb 0.00 in0.0 mm 0.00 in0.0 mm 0.00 in0.0 mm
07:33 PM 51.2°F10.7°C 37.9°F3.3°C 60% 2.1 mph WSW3.4 kmh WSW 15.0 mph24.1 kmh 29.94 in1013.9 mb 0.00 in0.0 mm 0.00 in0.0 mm 0.00 in0.0 mm
07:38 PM 51.1°F10.6°C 37.8°F3.2°C 60% 2.5 mph W4.0 kmh W 11.0 mph17.7 kmh 29.95 in1014.2 mb 0.00 in0.0 mm 0.00 in0.0 mm 0.00 in0.0 mm
07:43 PM 51.0°F10.6°C 38.5°F3.6°C 62% 2.3 mph WSW3.7 kmh WSW 11.0 mph17.7 kmh 29.95 in1014.2 mb 0.00 in0.0 mm 0.00 in0.0 mm 0.00 in0.0 mm
07:48 PM 50.9°F10.5°C 37.6°F3.1°C 60% 1.3 mph WSW2.1 kmh WSW 6.3 mph10.1 kmh 29.95 in1014.2 mb 0.00 in0.0 mm 0.00 in0.0 mm 0.00 in0.0 mm
07:53 PM 50.8°F10.4°C 38.4°F3.6°C 62% 1.5 mph WSW2.4 kmh WSW 6.0 mph9.7 kmh 29.95 in1014.2 mb 0.00 in0.0 mm 0.00 in0.0 mm 0.00 in0.0 mm
07:58 PM 50.7°F10.4°C 38.1°F3.4°C 62% 1.5 mph S2.4 kmh S 5.0 mph8.0 kmh 29.96 in1014.6 mb 0.00 in0.0 mm 0.00 in0.0 mm 0.00 in0.0 mm
08:03 PM 50.6°F10.3°C 37.6°F3.1°C 61% 2.2 mph S3.5 kmh S 7.5 mph12.1 kmh 29.95 in1014.2 mb 0.00 in0.0 mm 0.00 in0.0 mm 0.00 in0.0 mm
08:08 PM 50.6°F10.3°C 37.2°F2.9°C 60% 3.8 mph SW6.1 kmh SW 7.5 mph12.1 kmh 29.96 in1014.6 mb 0.00 in0.0 mm 0.00 in0.0 mm 0.00 in0.0 mm
08:13 PM 50.6°F10.3°C 38.1°F3.4°C 62% 1.3 mph W2.1 kmh W 7.5 mph12.1 kmh 29.96 in1014.6 mb 0.00 in0.0 mm 0.00 in0.0 mm 0.00 in0.0 mm
08:18 PM 50.4°F10.2°C 38.3°F3.5°C 63% 2.0 mph WNW3.2 kmh WNW 6.3 mph10.1 kmh 29.96 in1014.6 mb 0.00 in0.0 mm 0.00 in0.0 mm 0.00 in0.0 mm
08:23 PM 50.3°F10.2°C 37.9°F3.3°C 62% 1.3 mph WSW2.1 kmh WSW 6.0 mph9.7 kmh 29.96 in1014.6 mb 0.00 in0.0 mm 0.00 in0.0 mm 0.00 in0.0 mm
08:28 PM 50.3°F10.2°C 38.3°F3.5°C 63% 2.6 mph SSE4.2 kmh SSE 6.3 mph10.1 kmh 29.96 in1014.6 mb 0.00 in0.0 mm 0.00 in0.0 mm 0.00 in0.0 mm
08:33 PM 50.0°F10.0°C 38.0°F3.3°C 63% 1.3 mph W2.1 kmh W 6.3 mph10.1 kmh 29.96 in1014.6 mb 0.00 in0.0 mm 0.00 in0.0 mm 0.00 in0.0 mm
08:38 PM 49.9°F9.9°C 37.9°F3.3°C 63% 2.2 mph S3.5 kmh S 6.0 mph9.7 kmh 29.96 in1014.6 mb 0.00 in0.0 mm 0.00 in0.0 mm 0.00 in0.0 mm
08:43 PM 49.8°F9.9°C 38.6°F3.7°C 65% 1.3 mph WSW2.1 kmh WSW 6.0 mph9.7 kmh 29.96 in1014.6 mb 0.00 in0.0 mm 0.00 in0.0 mm 0.00 in0.0 mm
08:48 PM 49.8°F9.9°C 38.6°F3.7°C 65% 1.3 mph WSW2.1 kmh WSW 4.0 mph6.4 kmh 29.96 in1014.6 mb 0.00 in0.0 mm 0.00 in0.0 mm 0.00 in0.0 mm
08:53 PM 49.7°F9.8°C 38.5°F3.6°C 65% 1.3 mph S2.1 kmh S 4.0 mph6.4 kmh 29.96 in1014.6 mb 0.00 in0.0 mm 0.00 in0.0 mm 0.00 in0.0 mm
08:58 PM 49.6°F9.8°C 38.8°F3.8°C 66% Calm Calm 3.0 mph4.8 kmh 29.97 in1014.9 mb 0.00 in0.0 mm 0.00 in0.0 mm 0.00 in0.0 mm
09:03 PM 49.3°F9.6°C 38.5°F3.6°C 66% 1.3 mph SW2.1 kmh SW 3.0 mph4.8 kmh 29.97 in1014.9 mb 0.00 in0.0 mm 0.00 in0.0 mm 0.00 in0.0 mm
09:08 PM 49.0°F9.4°C 37.9°F3.3°C 65% 1.3 mph WSW2.1 kmh WSW 2.0 mph3.2 kmh 29.97 in1014.9 mb 0.00 in0.0 mm 0.00 in0.0 mm 0.00 in0.0 mm
09:13 PM 49.2°F9.6°C 37.6°F3.1°C 64% 1.3 mph WSW2.1 kmh WSW 2.0 mph3.2 kmh 29.97 in1014.9 mb 0.00 in0.0 mm 0.00 in0.0 mm 0.00 in0.0 mm
09:18 PM 49.3°F9.6°C 37.3°F2.9°C 63% 1.4 mph WSW2.3 kmh WSW 3.0 mph4.8 kmh 29.97 in1014.9 mb 0.00 in0.0 mm 0.00 in0.0 mm 0.00 in0.0 mm
09:23 PM 49.3°F9.6°C 37.3°F2.9°C 63% 1.3 mph S2.1 kmh S 3.0 mph4.8 kmh 29.97 in1014.9 mb 0.00 in0.0 mm 0.00 in0.0 mm 0.00 in0.0 mm
09:28 PM 49.2°F9.6°C 37.2°F2.9°C 63% 1.3 mph SSW2.1 kmh SSW 3.0 mph4.8 kmh 29.98 in1015.2 mb 0.00 in0.0 mm 0.00 in0.0 mm 0.00 in0.0 mm
09:33 PM 49.2°F9.6°C 37.2°F2.9°C 63% 1.3 mph WSW2.1 kmh WSW 3.0 mph4.8 kmh 29.98 in1015.2 mb 0.00 in0.0 mm 0.00 in0.0 mm 0.00 in0.0 mm
09:38 PM 49.1°F9.5°C 36.2°F2.3°C 61% 1.4 mph W2.3 kmh W 2.5 mph4.0 kmh 29.98 in1015.2 mb 0.00 in0.0 mm 0.00 in0.0 mm 0.00 in0.0 mm
09:43 PM 49.2°F9.6°C 36.7°F2.6°C 62% 1.4 mph W2.3 kmh W 2.5 mph4.0 kmh 29.98 in1015.2 mb 0.00 in0.0 mm 0.00 in0.0 mm 0.00 in0.0 mm
09:48 PM 49.1°F9.5°C 36.6°F2.6°C 62% 1.3 mph W2.1 kmh W 2.5 mph4.0 kmh 29.98 in1015.2 mb 0.00 in0.0 mm 0.00 in0.0 mm 0.00 in0.0 mm
09:53 PM 48.8°F9.3°C 37.3°F2.9°C 64% 1.3 mph WSW2.1 kmh WSW 2.5 mph4.0 kmh 29.98 in1015.2 mb 0.00 in0.0 mm 0.00 in0.0 mm 0.00 in0.0 mm
09:58 PM 48.6°F9.2°C 37.1°F2.8°C 64% 1.3 mph WSW2.1 kmh WSW 2.0 mph3.2 kmh 29.98 in1015.2 mb 0.00 in0.0 mm 0.00 in0.0 mm 0.00 in0.0 mm
10:03 PM 48.1°F8.9°C 36.6°F2.6°C 64% 1.8 mph W2.9 kmh W 2.5 mph4.0 kmh 29.98 in1015.2 mb 0.00 in0.0 mm 0.00 in0.0 mm 0.00 in0.0 mm
10:08 PM 48.7°F9.3°C 35.8°F2.1°C 61% 1.5 mph W2.4 kmh W 3.8 mph6.1 kmh 29.98 in1015.2 mb 0.00 in0.0 mm 0.00 in0.0 mm 0.00 in0.0 mm
10:13 PM 48.7°F9.3°C 36.3°F2.4°C 62% 1.3 mph E2.1 kmh E 3.8 mph6.1 kmh 29.98 in1015.2 mb 0.00 in0.0 mm 0.00 in0.0 mm 0.00 in0.0 mm
10:18 PM 48.3°F9.1°C 35.9°F2.2°C 62% 2.0 mph SSW3.2 kmh SSW 3.0 mph4.8 kmh 29.99 in1015.6 mb 0.00 in0.0 mm 0.00 in0.0 mm 0.00 in0.0 mm
10:23 PM 48.2°F9.0°C 36.6°F2.6°C 64% 1.5 mph WSW2.4 kmh WSW 3.0 mph4.8 kmh 29.98 in1015.2 mb 0.00 in0.0 mm 0.00 in0.0 mm 0.00 in0.0 mm
10:28 PM 48.5°F9.2°C 35.7°F2.1°C 61% 1.3 mph WNW2.1 kmh WNW 2.5 mph4.0 kmh 29.98 in1015.2 mb 0.00 in0.0 mm 0.00 in0.0 mm 0.00 in0.0 mm
10:34 PM 48.6°F9.2°C 36.7°F2.6°C 63% 1.3 mph WSW2.1 kmh WSW 3.8 mph6.1 kmh 29.99 in1015.6 mb 0.00 in0.0 mm 0.00 in0.0 mm 0.00 in0.0 mm
10:39 PM 48.7°F9.3°C 35.9°F2.2°C 61% 1.3 mph WSW2.1 kmh WSW 6.3 mph10.1 kmh 29.99 in1015.6 mb 0.00 in0.0 mm 0.00 in0.0 mm 0.00 in0.0 mm
10:44 PM 48.6°F9.2°C 36.2°F2.3°C 62% 1.3 mph WSW2.1 kmh WSW 6.3 mph10.1 kmh 29.99 in1015.6 mb 0.00 in0.0 mm 0.00 in0.0 mm 0.00 in0.0 mm
10:49 PM 48.7°F9.3°C 36.4°F2.4°C 62% 1.3 mph WNW2.1 kmh WNW 6.3 mph10.1 kmh 29.99 in1015.6 mb 0.00 in0.0 mm 0.00 in0.0 mm 0.00 in0.0 mm
10:54 PM 48.8°F9.3°C 36.0°F2.2°C 61% 2.1 mph W3.4 kmh W 7.5 mph12.1 kmh 29.99 in1015.6 mb 0.00 in0.0 mm 0.00 in0.0 mm 0.00 in0.0 mm
10:59 PM 49.1°F9.5°C 34.9°F1.6°C 58% 2.5 mph SW4.0 kmh SW 7.5 mph12.1 kmh 29.99 in1015.6 mb 0.00 in0.0 mm 0.00 in0.0 mm 0.00 in0.0 mm
11:04 PM 49.1°F9.5°C 35.4°F1.9°C 59% 1.3 mph SSE2.1 kmh SSE 5.0 mph8.0 kmh 29.99 in1015.6 mb 0.00 in0.0 mm 0.00 in0.0 mm 0.00 in0.0 mm
11:09 PM 48.9°F9.4°C 35.6°F2.0°C 60% 1.5 mph WSW2.4 kmh WSW 5.0 mph8.0 kmh 29.99 in1015.6 mb 0.00 in0.0 mm 0.00 in0.0 mm 0.00 in0.0 mm
11:14 PM 49.1°F9.5°C 35.0°F1.7°C 58% 1.4 mph W2.3 kmh W 5.0 mph8.0 kmh 29.99 in1015.6 mb 0.00 in0.0 mm 0.00 in0.0 mm 0.00 in0.0 mm
11:19 PM 48.8°F9.3°C 35.1°F1.7°C 59% 1.8 mph W2.9 kmh W 5.0 mph8.0 kmh 29.99 in1015.6 mb 0.00 in0.0 mm 0.00 in0.0 mm 0.00 in0.0 mm
11:24 PM 48.9°F9.4°C 34.8°F1.6°C 58% 1.5 mph WSW2.4 kmh WSW 5.0 mph8.0 kmh 29.99 in1015.6 mb 0.00 in0.0 mm 0.00 in0.0 mm 0.00 in0.0 mm
11:29 PM 49.0°F9.4°C 34.5°F1.4°C 57% 3.1 mph SSW5.0 kmh SSW 6.3 mph10.1 kmh 29.99 in1015.6 mb 0.00 in0.0 mm 0.00 in0.0 mm 0.00 in0.0 mm
11:34 PM 48.9°F9.4°C 35.3°F1.8°C 59% 1.3 mph NW2.1 kmh NW 6.3 mph10.1 kmh 29.99 in1015.6 mb 0.00 in0.0 mm 0.00 in0.0 mm 0.00 in0.0 mm
11:39 PM 48.7°F9.3°C 35.0°F1.7°C 59% 1.7 mph SW2.7 kmh SW 5.0 mph8.0 kmh 29.99 in1015.6 mb 0.00 in0.0 mm 0.00 in0.0 mm 0.00 in0.0 mm
11:44 PM 48.7°F9.3°C 34.7°F1.5°C 58% 2.5 mph SW4.0 kmh SW 6.3 mph10.1 kmh 29.99 in1015.6 mb 0.00 in0.0 mm 0.00 in0.0 mm 0.00 in0.0 mm
11:49 PM 48.6°F9.2°C 35.0°F1.7°C 59% Calm Calm 6.3 mph10.1 kmh 29.99 in1015.6 mb 0.00 in0.0 mm 0.00 in0.0 mm 0.00 in0.0 mm
11:54 PM 48.5°F9.2°C 34.8°F1.6°C 59% 1.3 mph E2.1 kmh E 5.0 mph8.0 kmh 29.99 in1015.6 mb 0.00 in0.0 mm 0.00 in0.0 mm 0.00 in0.0 mm
11:59 PM 48.3°F9.1°C 35.1°F1.7°C 60% 1.3 mph SW2.1 kmh SW 5.0 mph8.0 kmh 29.99 in1015.6 mb 0.00 in0.0 mm 0.00 in0.0 mm 0.00 in0.0 mm